Terminal Aerodrome Forecast
Issued by NWS

Home | Current Version | Previous Version | Text Only | Print | Product List | Glossary On
Versions: 1 2 3 4 5 6 7 8 9 10 11 12 13 14 15 16 17 18 19 20 21 22 23 24 25 26 27 28 29 30 31 32 33 34 35 36 37 38 39 40 41 42 43 44 45 46 47 48 49 50
000
FTUS44 KLIX 280012 RRA
TAFASD
TAF
KASD 280012Z 2800/2824 36005KT 6SM -TSRA SCT030 OVC100CB
     FM280300 09009KT 3SM TSRA BKN008 OVC035CB
     FM280600 09008KT 3SM SHRA OVC008
     FM281200 09008KT P6SM VCTS OVC008CB
     FM281500 03006KT P6SM VCTS OVC015CB
     FM281800 32005KT P6SM BKN015=

USA.gov is the U.S. government's official web portal to all federal, state and local government web resources and services.